Time;durP1;ratioP1;P1;durP2;ratioP2;P2;SDS_P1;SDS_P2;PMS_P1;PMS_P2;Temp;Humidity;BMP_temperature;BMP_pressure;BME280_temperature;BME280_humidity;BME280_pressure;Samples;Min_cycle;Max_cycle;Signal;HPM_P1;HPM_P2
2021/07/24 00:01:59;;;;;;;12.45;9.05;;;;;;;17.16;75.11;100734.03;1677961;81;26404;-79
2021/07/24 00:04:26;;;;;;;10.80;8.50;;;;;;;17.10;74.97;100731.72;1724921;80;28228;-78
2021/07/24 00:06:53;;;;;;;12.65;10.03;;;;;;;17.02;74.87;100733.38;1749197;80;26011;-78
2021/07/24 00:09:20;;;;;;;14.20;11.33;;;;;;;16.95;75.12;100735.32;1700248;80;25903;-78
2021/07/24 00:11:47;;;;;;;14.63;11.50;;;;;;;16.95;75.60;100730.75;1695679;81;25965;-79
2021/07/24 00:14:14;;;;;;;13.03;10.88;;;;;;;16.95;75.80;100735.32;1734987;81;25326;-79
2021/07/24 00:16:41;;;;;;;14.55;12.05;;;;;;;16.93;75.98;100738.27;1735385;81;27566;-78
2021/07/24 00:19:08;;;;;;;16.80;11.93;;;;;;;16.94;75.99;100733.66;1677008;81;26156;-77
2021/07/24 00:21:35;;;;;;;16.17;11.65;;;;;;;16.93;75.86;100740.13;1699204;81;25418;-78
2021/07/24 00:24:03;;;;;;;12.85;9.80;;;;;;;16.93;75.70;100738.78;1744128;80;25821;-78
2021/07/24 00:26:30;;;;;;;14.47;10.45;;;;;;;16.89;75.49;100738.93;1763451;80;25752;-79
2021/07/24 00:28:57;;;;;;;15.08;11.08;;;;;;;16.86;75.45;100737.49;1718970;81;27567;-79
2021/07/24 00:31:24;;;;;;;13.22;11.35;;;;;;;16.85;75.51;100737.73;1693754;81;25948;-78
2021/07/24 00:33:53;;;;;;;18.07;11.33;;;;;;;16.83;75.74;100744.69;1751574;80;25898;-78
2021/07/24 00:36:20;;;;;;;16.15;10.93;;;;;;;16.81;75.77;100738.68;1755953;80;26468;-78
2021/07/24 00:38:47;;;;;;;15.75;10.68;;;;;;;16.80;75.90;100745.16;1697433;80;25863;-79
2021/07/24 00:41:39;;;;;;;12.18;9.28;;;;;;;16.78;75.90;100747.78;1700743;80;27243;-79
2021/07/24 00:44:08;;;;;;;13.48;9.68;;;;;;;16.68;75.69;100745.57;1734332;81;25769;-78
2021/07/24 00:46:38;;;;;;;12.90;10.20;;;;;;;16.62;75.98;100737.52;1725778;81;25778;-78
2021/07/24 00:49:07;;;;;;;14.25;10.60;;;;;;;16.60;76.25;100746.38;1693893;80;26495;-78
2021/07/24 00:51:45;;;;;;;14.47;10.60;;;;;;;16.60;76.59;100740.97;1716219;80;25900;-78
2021/07/24 00:54:12;;;;;;;15.65;12.37;;;;;;;16.60;76.78;100740.97;1740232;80;27475;-79
2021/07/24 00:56:44;;;;;;;13.48;10.45;;;;;;;16.58;76.95;100739.85;1721480;81;26601;-79
2021/07/24 00:59:11;;;;;;;16.05;9.75;;;;;;;16.56;76.61;100738.41;1664373;82;25939;-78
2021/07/24 01:01:41;;;;;;;12.07;9.78;;;;;;;16.51;76.59;100734.22;1687122;82;25875;-79
2021/07/24 01:04:09;;;;;;;12.68;10.18;;;;;;;16.50;76.60;100737.95;1704315;82;26367;-78
2021/07/24 01:06:37;;;;;;;11.45;9.05;;;;;;;16.47;76.74;100736.48;1729016;82;28392;-79
2021/07/24 01:09:05;;;;;;;11.88;9.63;;;;;;;16.46;76.90;100735.36;1661908;81;25876;-78
2021/07/24 01:11:32;;;;;;;10.85;9.23;;;;;;;16.44;77.07;100732.05;1684560;81;25910;-78
2021/07/24 01:13:59;;;;;;;13.88;9.33;;;;;;;16.41;77.11;100733.31;1702078;81;25845;-78
2021/07/24 01:16:27;;;;;;;12.40;9.10;;;;;;;16.40;77.25;100727.59;1727878;81;25763;-78
2021/07/24 01:18:55;;;;;;;12.58;9.13;;;;;;;16.41;77.30;100730.61;1696564;80;28253;-78
2021/07/24 01:21:29;;;;;;;10.90;8.75;;;;;;;16.36;77.16;100733.14;1694302;81;26226;-78
2021/07/24 01:23:57;;;;;;;11.83;8.78;;;;;;;16.36;77.15;100733.69;1733952;82;25301;-78
2021/07/24 01:26:30;;;;;;;11.28;9.53;;;;;;;16.33;77.14;100730.06;1684486;81;26481;-78
2021/07/24 01:28:58;;;;;;;10.55;8.43;;;;;;;16.33;77.17;100724.66;1698849;83;25935;-77
2021/07/24 01:31:26;;;;;;;13.80;8.93;;;;;;;16.28;77.17;100721.27;1737263;81;27529;-79
2021/07/24 01:33:53;;;;;;;15.70;9.70;;;;;;;16.26;77.42;100722.52;1693919;80;26798;-79
2021/07/24 01:36:22;;;;;;;16.87;10.28;;;;;;;16.25;77.63;100719.02;1699497;81;25764;-78
2021/07/24 01:38:50;;;;;;;15.80;11.33;;;;;;;16.27;77.84;100722.84;1721201;80;25825;-78
2021/07/24 01:41:17;;;;;;;15.32;11.08;;;;;;;16.27;77.99;100720.14;1751710;80;25793;-78
2021/07/24 01:43:45;;;;;;;19.40;13.38;;;;;;;16.29;78.04;100718.04;1722700;81;27560;-78
2021/07/24 01:46:14;;;;;;;16.52;10.95;;;;;;;16.31;78.21;100724.05;1691119;82;25825;-79
2021/07/24 01:49:10;;;;;;;13.03;9.53;;;;;;;16.27;77.90;100724.20;1710113;81;26523;-78
2021/07/24 01:54:06;;;;;;;11.83;9.95;;;;;;;16.15;77.91;100716.80;1682146;80;25898;-78
2021/07/24 01:56:36;;;;;;;11.00;8.90;;;;;;;16.14;77.81;100728.64;1667834;81;27568;-78
2021/07/24 01:59:03;;;;;;;17.87;8.03;;;;;;;16.07;77.77;100729.75;1717623;81;25992;-79
2021/07/24 02:01:32;;;;;;;14.30;10.72;;;;;;;15.98;77.78;100721.59;1729778;81;25746;-79
2021/07/24 02:04:10;;;;;;;14.10;11.18;;;;;;;15.91;78.10;100724.34;1705221;81;25860;-79
2021/07/24 02:06:42;;;;;;;17.87;11.07;;;;;;;15.90;78.46;100721.87;1731891;81;25972;-78
2021/07/24 02:09:12;;;;;;;12.70;9.85;;;;;;;15.91;78.65;100714.09;1639003;82;27160;-78
2021/07/24 02:11:40;;;;;;;18.27;11.12;;;;;;;15.92;78.73;100719.27;1727806;80;25944;-79
2021/07/24 02:14:07;;;;;;;13.62;10.93;;;;;;;15.96;78.86;100712.88;1709903;81;25891;-78
2021/07/24 02:16:36;;;;;;;14.10;10.58;;;;;;;15.99;78.97;100716.52;1704637;81;25778;-78
2021/07/24 02:19:03;;;;;;;15.53;11.10;;;;;;;16.00;78.88;100723.55;1718355;81;25995;-78
2021/07/24 02:21:32;;;;;;;14.93;10.85;;;;;;;16.03;78.88;100723.13;1720866;80;27517;-78
2021/07/24 02:24:00;;;;;;;18.60;11.97;;;;;;;16.04;78.88;100712.61;1711513;82;26537;-78
2021/07/24 02:26:27;;;;;;;13.20;11.22;;;;;;;16.04;78.68;100709.91;1686374;81;25319;-79
2021/07/24 02:28:54;;;;;;;15.63;11.22;;;;;;;16.02;78.84;100709.30;1726015;80;26237;-78
2021/07/24 02:31:22;;;;;;;14.55;11.40;;;;;;;16.03;79.01;100708.27;1756787;80;25755;-79
2021/07/24 02:33:50;;;;;;;14.10;11.18;;;;;;;16.04;79.20;100705.86;1703490;80;27563;-78
2021/07/24 02:36:19;;;;;;;17.37;12.05;;;;;;;16.05;79.24;100703.47;1720990;81;25969;-78
2021/07/24 02:38:46;;;;;;;15.93;12.25;;;;;;;16.09;79.43;100699.28;1726110;80;26599;-79
2021/07/24 02:41:13;;;;;;;16.60;12.43;;;;;;;16.11;79.42;100703.42;1713202;82;25937;-78
2021/07/24 02:43:40;;;;;;;15.45;11.53;;;;;;;16.14;79.33;100702.16;1695338;82;25849;-79
2021/07/24 02:46:07;;;;;;;16.32;12.23;;;;;;;16.15;79.33;100697.87;1670490;82;27591;-78
2021/07/24 02:48:36;;;;;;;17.90;12.15;;;;;;;16.17;79.39;100699.00;1701274;81;25814;-78
2021/07/24 02:51:04;;;;;;;16.23;12.03;;;;;;;16.16;79.55;100690.09;1729235;81;25862;-77
2021/07/24 02:53:32;;;;;;;16.67;11.28;;;;;;;16.17;79.65;100690.89;1704512;81;26524;-76
2021/07/24 02:56:00;;;;;;;14.47;11.48;;;;;;;16.14;79.36;100694.05;1679169;81;26595;-75
2021/07/24 02:58:27;;;;;;;13.38;10.75;;;;;;;16.07;78.89;100694.63;1682011;82;27462;-78
2021/07/24 03:00:54;;;;;;;13.15;9.68;;;;;;;15.92;78.67;100693.59;1676931;81;25945;-79
2021/07/24 03:03:21;;;;;;;12.47;10.43;;;;;;;15.81;78.90;100699.70;1708611;81;25779;-77
2021/07/24 03:05:49;;;;;;;13.15;10.93;;;;;;;15.79;79.15;100696.91;1666251;81;26366;-78
2021/07/24 03:08:16;;;;;;;12.85;10.08;;;;;;;15.79;79.33;100697.73;1715014;82;25752;-76
2021/07/24 03:10:43;;;;;;;14.38;10.50;;;;;;;15.78;79.27;100697.41;1733386;81;28284;-79
2021/07/24 03:13:10;;;;;;;11.25;9.83;;;;;;;15.75;79.13;100698.39;1704352;82;25846;-78
2021/07/24 03:15:37;;;;;;;13.50;10.18;;;;;;;15.74;79.30;100697.55;1687034;81;25871;-78
2021/07/24 03:18:04;;;;;;;13.10;10.60;;;;;;;15.77;79.51;100700.34;1693298;83;26968;-78
2021/07/24 03:20:31;;;;;;;10.43;9.33;;;;;;;15.77;79.40;100702.53;1732270;82;26090;-77
2021/07/24 03:23:00;;;;;;;14.53;10.63;;;;;;;15.73;79.30;100710.77;1715799;82;27354;-77
2021/07/24 03:25:29;;;;;;;11.57;10.03;;;;;;;15.72;79.54;100706.91;1659862;82;25334;-77
2021/07/24 03:27:56;;;;;;;13.53;10.75;;;;;;;15.73;79.76;100705.88;1715568;82;25329;-78
2021/07/24 03:30:23;;;;;;;15.90;12.03;;;;;;;15.73;79.97;100699.13;1714645;82;26450;-78
2021/07/24 03:32:51;;;;;;;18.85;11.95;;;;;;;15.75;80.16;100701.09;1716935;82;25882;-78
2021/07/24 03:35:19;;;;;;;17.92;11.78;;;;;;;15.77;80.35;100694.43;1710856;82;28115;-78
2021/07/24 03:37:46;;;;;;;18.45;12.95;;;;;;;15.80;80.67;100695.33;1714895;81;25970;-77
2021/07/24 03:40:13;;;;;;;16.80;12.33;;;;;;;15.84;80.85;100699.78;1676201;83;25399;-78
2021/07/24 03:42:40;;;;;;;14.68;12.68;;;;;;;15.88;81.08;100696.95;1735560;82;25786;-78
2021/07/24 03:45:08;;;;;;;18.07;12.18;;;;;;;15.92;81.25;100694.95;1735755;82;25832;-78
2021/07/24 03:47:35;;;;;;;18.07;12.78;;;;;;;15.98;81.28;100697.28;1660938;82;28260;-78
2021/07/24 03:50:02;;;;;;;16.60;11.75;;;;;;;16.04;81.13;100699.10;1690354;82;26503;-78
2021/07/24 03:52:29;;;;;;;14.10;11.70;;;;;;;16.05;81.15;100700.77;1706329;82;25879;-78
2021/07/24 03:54:58;;;;;;;13.93;11.15;;;;;;;16.08;81.08;100701.70;1729683;81;25798;-78
2021/07/24 03:57:25;;;;;;;17.32;12.50;;;;;;;16.12;81.23;100701.01;1650677;82;26027;-78
2021/07/24 03:59:52;;;;;;;17.77;11.95;;;;;;;16.16;81.38;100701.41;1696974;81;27533;-78
2021/07/24 04:02:24;;;;;;;13.43;11.35;;;;;;;16.19;81.59;100701.79;1750116;80;25768;-77
2021/07/24 04:04:52;;;;;;;15.55;11.25;;;;;;;16.24;81.73;100701.13;1712491;82;25369;-78
2021/07/24 04:07:22;;;;;;;19.42;12.50;;;;;;;16.30;81.74;100696.70;1669330;81;25778;-77
2021/07/24 04:09:49;;;;;;;15.38;12.85;;;;;;;16.35;81.81;100705.82;1702546;80;25824;-78
2021/07/24 04:12:16;;;;;;;16.82;12.47;;;;;;;16.40;82.05;100707.31;1753286;80;27539;-78
2021/07/24 04:14:45;;;;;;;15.35;12.88;;;;;;;16.46;82.25;100711.03;1753054;80;25753;-78
2021/07/24 04:17:12;;;;;;;17.70;14.18;;;;;;;16.49;82.48;100704.64;1705714;81;25902;-77
2021/07/24 04:19:39;;;;;;;21.25;16.17;;;;;;;16.55;82.64;100707.83;1733499;80;26539;-78
2021/07/24 04:22:06;;;;;;;21.97;16.30;;;;;;;16.62;82.70;100708.60;1747620;80;25789;-77
2021/07/24 04:24:33;;;;;;;22.07;16.73;;;;;;;16.70;82.94;100707.50;1756312;80;27485;-78
2021/07/24 04:27:00;;;;;;;26.12;18.70;;;;;;;16.80;83.28;100706.45;1693807;80;25763;-78
2021/07/24 04:29:27;;;;;;;24.27;18.10;;;;;;;16.90;83.42;100706.75;1701817;80;25874;-78
2021/07/24 04:31:55;;;;;;;23.07;18.30;;;;;;;17.00;83.97;100706.23;1756522;80;25810;-78
2021/07/24 04:34:22;;;;;;;20.17;17.02;;;;;;;17.07;83.99;100706.44;1725899;81;25379;-77
2021/07/24 04:36:49;;;;;;;22.17;17.05;;;;;;;17.16;84.39;100706.97;1680854;80;28132;-78
2021/07/24 04:39:16;;;;;;;21.02;15.72;;;;;;;17.23;84.80;100713.97;1693732;81;25924;-78
2021/07/24 04:41:43;;;;;;;19.30;15.65;;;;;;;17.31;84.78;100716.36;1706755;81;25910;-78
2021/07/24 04:44:10;;;;;;;19.17;14.47;;;;;;;17.37;84.88;100712.73;1736543;80;26482;-77
2021/07/24 04:46:37;;;;;;;15.75;13.32;;;;;;;17.42;84.87;100712.89;1704357;81;25811;-77
2021/07/24 04:49:04;;;;;;;17.90;14.45;;;;;;;17.45;85.06;100707.00;1669559;83;27745;-77
2021/07/24 04:51:36;;;;;;;17.35;14.38;;;;;;;17.50;85.06;100709.89;1735509;81;25326;-78
2021/07/24 04:54:05;;;;;;;16.75;13.85;;;;;;;17.55;85.25;100710.56;1736175;81;25868;-78
2021/07/24 04:56:33;;;;;;;20.02;15.63;;;;;;;17.61;85.50;100706.41;1671519;82;25844;-78
2021/07/24 04:59:01;;;;;;;19.00;15.32;;;;;;;17.67;85.66;100704.13;1677087;81;25859;-78
2021/07/24 05:01:28;;;;;;;21.75;16.05;;;;;;;17.76;85.86;100701.08;1720308;81;28195;-78
2021/07/24 05:03:57;;;;;;;21.15;17.62;;;;;;;17.84;86.17;100701.58;1698329;81;25865;-78
2021/07/24 05:06:25;;;;;;;23.22;18.70;;;;;;;17.95;86.46;100708.08;1657267;81;25874;-78
2021/07/24 05:08:52;;;;;;;24.75;19.05;;;;;;;18.05;86.37;100708.36;1675030;83;25871;-78
2021/07/24 05:11:19;;;;;;;26.65;21.23;;;;;;;18.15;86.25;100705.37;1691315;81;25949;-78
2021/07/24 05:13:47;;;;;;;24.02;18.25;;;;;;;18.26;86.43;100709.96;1725373;81;28221;-78
2021/07/24 05:16:14;;;;;;;20.17;17.00;;;;;;;18.35;86.73;100706.38;1660177;82;26078;-79
2021/07/24 05:18:41;;;;;;;20.65;16.57;;;;;;;18.38;86.60;100712.17;1680756;81;25801;-78
2021/07/24 05:21:12;;;;;;;21.15;16.65;;;;;;;18.43;86.62;100718.26;1721351;81;26939;-77
2021/07/24 05:23:39;;;;;;;23.05;16.67;;;;;;;18.45;86.48;100715.61;1752082;80;25821;-77
2021/07/24 05:26:06;;;;;;;23.12;17.45;;;;;;;18.46;86.37;100723.23;1673590;81;27484;-78
2021/07/24 05:28:33;;;;;;;22.77;18.10;;;;;;;18.44;86.59;100722.11;1700877;81;26471;-78
2021/07/24 05:31:00;;;;;;;22.37;17.35;;;;;;;18.40;86.17;100720.91;1724638;81;25789;-78
2021/07/24 05:33:27;;;;;;;20.90;17.82;;;;;;;18.41;85.86;100721.73;1749639;80;26464;-78
2021/07/24 05:35:54;;;;;;;23.02;17.25;;;;;;;18.44;85.75;100724.83;1691242;81;25914;-78
2021/07/24 05:38:21;;;;;;;22.58;18.37;;;;;;;18.50;85.81;100727.67;1713832;80;27415;-77
2021/07/24 05:40:51;;;;;;;24.57;19.48;;;;;;;18.54;85.71;100718.80;1751820;80;25749;-78
2021/07/24 05:43:18;;;;;;;24.57;18.02;;;;;;;18.61;85.75;100720.04;1761262;80;26292;-78
2021/07/24 05:45:46;;;;;;;21.37;18.12;;;;;;;18.69;85.71;100718.35;1695762;80;25912;-77
2021/07/24 05:48:14;;;;;;;22.15;18.12;;;;;;;18.76;85.43;100713.61;1707024;81;25800;-78
2021/07/24 05:50:42;;;;;;;25.95;19.57;;;;;;;18.84;85.34;100718.70;1756354;80;27730;-78
2021/07/24 05:53:09;;;;;;;25.90;20.40;;;;;;;18.95;85.33;100721.91;1764874;80;25780;-78
2021/07/24 05:55:37;;;;;;;25.62;19.07;;;;;;;19.01;85.07;100716.34;1694188;80;25388;-78
2021/07/24 05:58:09;;;;;;;25.20;19.70;;;;;;;19.07;84.87;100718.66;1703445;80;25837;-79
2021/07/24 06:00:36;;;;;;;26.27;19.73;;;;;;;19.15;84.50;100711.48;1748190;80;25346;-78
2021/07/24 06:03:03;;;;;;;29.05;21.30;;;;;;;19.19;84.51;100712.13;1737929;80;27507;-78
2021/07/24 06:05:30;;;;;;;26.70;20.12;;;;;;;19.28;83.86;100711.75;1692956;81;26619;-78
2021/07/24 06:07:57;;;;;;;28.05;19.48;;;;;;;19.34;83.37;100707.56;1706152;80;25803;-77
2021/07/24 06:10:24;;;;;;;28.45;19.62;;;;;;;19.41;83.57;100710.98;1728619;81;26530;-77
2021/07/24 06:12:52;;;;;;;26.17;18.70;;;;;;;19.50;82.89;100700.02;1751773;80;26363;-77
2021/07/24 06:15:19;;;;;;;28.07;18.20;;;;;;;19.61;82.65;100704.56;1671921;81;27474;-77
2021/07/24 06:17:46;;;;;;;25.85;19.30;;;;;;;19.76;82.55;100703.48;1691367;81;26564;-78
2021/07/24 06:20:13;;;;;;;22.82;16.97;;;;;;;19.89;81.54;100699.10;1742794;81;25874;-79
2021/07/24 06:22:40;;;;;;;23.92;18.27;;;;;;;20.03;80.92;100698.27;1739011;81;25863;-77
2021/07/24 06:25:08;;;;;;;24.12;17.30;;;;;;;20.17;80.82;100704.19;1671897;81;25860;-78
2021/07/24 06:27:35;;;;;;;25.05;17.42;;;;;;;20.28;80.05;100700.06;1698464;81;28219;-78
2021/07/24 06:30:03;;;;;;;21.50;16.57;;;;;;;20.38;80.78;100695.34;1733457;81;25355;-77
2021/07/24 06:32:31;;;;;;;19.65;16.52;;;;;;;20.53;80.01;100697.73;1751528;80;25928;-77
2021/07/24 06:34:58;;;;;;;24.77;16.67;;;;;;;20.65;80.23;100699.84;1692186;82;25908;-77
2021/07/24 06:37:25;;;;;;;20.00;14.75;;;;;;;20.76;79.26;100700.25;1685878;81;25937;-77
2021/07/24 06:39:53;;;;;;;18.62;15.15;;;;;;;20.82;79.23;100701.16;1741188;81;27413;-78
2021/07/24 06:42:20;;;;;;;20.90;14.53;;;;;;;20.90;78.43;100693.08;1739968;81;25933;-77
2021/07/24 06:44:47;;;;;;;20.75;14.45;;;;;;;21.01;78.13;100700.31;1664158;81;25884;-77
2021/07/24 06:47:14;;;;;;;21.55;14.68;;;;;;;21.06;77.50;100693.09;1690967;81;25892;-77
2021/07/24 06:49:41;;;;;;;19.92;14.20;;;;;;;21.09;78.18;100698.53;1684345;81;26205;-77
2021/07/24 06:52:08;;;;;;;19.32;14.38;;;;;;;21.10;77.02;100701.03;1672073;81;27445;-77
2021/07/24 06:54:35;;;;;;;18.95;14.15;;;;;;;21.04;76.87;100697.13;1661598;82;26071;-78
2021/07/24 06:57:03;;;;;;;17.55;13.65;;;;;;;21.01;76.96;100701.67;1684520;81;25815;-77
2021/07/24 06:59:30;;;;;;;22.07;13.90;;;;;;;21.08;77.08;100699.62;1736786;81;26491;-78
2021/07/24 07:01:59;;;;;;;17.62;13.22;;;;;;;21.18;77.48;100704.67;1754804;80;25983;-78
2021/07/24 07:04:27;;;;;;;16.37;12.98;;;;;;;21.31;77.89;100706.18;1724826;80;29813;-77
2021/07/24 07:06:53;;;;;;;15.48;12.03;;;;;;;21.43;76.78;100706.33;1729633;80;25892;-77
2021/07/24 07:09:21;;;;;;;22.13;13.40;;;;;;;21.56;75.27;100701.55;1720686;81;26137;-78
2021/07/24 07:11:48;;;;;;;19.37;12.37;;;;;;;21.66;75.02;100698.41;1714162;81;26560;-78
2021/07/24 07:14:15;;;;;;;16.30;11.03;;;;;;;21.76;74.59;100705.86;1712611;80;25895;-77
2021/07/24 07:16:42;;;;;;;14.00;9.88;;;;;;;21.86;73.96;100708.71;1676659;81;28526;-77
2021/07/24 07:19:09;;;;;;;12.60;10.55;;;;;;;21.94;72.37;100710.99;1693933;83;26052;-78
2021/07/24 07:21:36;;;;;;;18.40;11.57;;;;;;;22.05;72.17;100710.81;1722068;81;25295;-77
2021/07/24 07:24:03;;;;;;;12.07;10.78;;;;;;;22.15;71.69;100714.98;1689779;82;25803;-77
2021/07/24 07:26:32;;;;;;;14.87;11.03;;;;;;;22.24;71.37;100718.89;1683835;82;25779;-77
2021/07/24 07:29:03;;;;;;;16.20;11.43;;;;;;;22.36;71.64;100721.98;1716879;82;28292;-77
2021/07/24 07:31:32;;;;;;;13.18;11.78;;;;;;;22.47;71.42;100719.09;1736644;82;25844;-78
2021/07/24 07:34:01;;;;;;;21.90;12.23;;;;;;;22.58;71.05;100718.62;1710668;82;25936;-77
2021/07/24 07:36:28;;;;;;;14.75;11.63;;;;;;;22.64;70.54;100721.69;1673644;82;25921;-77
2021/07/24 07:38:55;;;;;;;13.93;11.75;;;;;;;22.69;69.86;100726.62;1714946;82;25788;-77
2021/07/24 07:41:22;;;;;;;18.07;13.30;;;;;;;22.76;69.72;100725.03;1730883;82;28164;-77
2021/07/24 07:43:50;;;;;;;23.57;12.70;;;;;;;22.81;70.03;100730.00;1711240;82;25989;-77
2021/07/24 07:46:17;;;;;;;14.65;11.90;;;;;;;22.90;70.03;100728.96;1656788;82;26174;-78
2021/07/24 07:48:44;;;;;;;16.75;12.47;;;;;;;22.96;68.93;100730.09;1713601;82;26087;-78
2021/07/24 07:51:11;;;;;;;14.93;11.85;;;;;;;23.03;69.27;100727.12;1737209;82;25728;-78
2021/07/24 07:53:38;;;;;;;14.35;11.20;;;;;;;23.15;69.99;100727.72;1709554;82;27244;-78
2021/07/24 07:56:10;;;;;;;14.95;12.43;;;;;;;23.28;69.32;100725.05;1710510;82;25831;-77
2021/07/24 07:58:34;;;;;;;15.35;11.65;;;;;;;23.36;68.47;100727.28;1728704;82;25847;-78
2021/07/24 08:01:01;;;;;;;14.30;11.53;;;;;;;23.42;69.08;100727.58;1742566;82;25762;-78
2021/07/24 08:03:28;;;;;;;14.43;12.47;;;;;;;23.52;69.17;100724.33;1713712;82;25856;-78
2021/07/24 08:05:56;;;;;;;18.27;11.28;;;;;;;23.60;68.16;100729.30;1709739;82;27746;-78
2021/07/24 08:08:23;;;;;;;15.63;12.03;;;;;;;23.69;68.48;100726.30;1705260;82;25350;-78
2021/07/24 08:10:50;;;;;;;15.28;11.28;;;;;;;23.78;68.30;100734.80;1728074;82;25925;-78
2021/07/24 08:13:17;;;;;;;16.45;11.57;;;;;;;23.81;66.68;100730.70;1705121;82;25889;-77
2021/07/24 08:15:50;;;;;;;13.70;11.05;;;;;;;23.90;66.90;100729.09;1658830;82;25996;-78
2021/07/24 08:18:17;;;;;;;14.40;11.53;;;;;;;24.00;66.13;100727.72;1693380;82;27333;-77
2021/07/24 08:20:44;;;;;;;14.93;11.73;;;;;;;24.09;66.36;100731.60;1736660;81;25846;-77
2021/07/24 08:23:15;;;;;;;13.70;10.50;;;;;;;24.19;66.60;100728.33;1709404;82;25888;-77
2021/07/24 08:25:42;;;;;;;;;;;;;;;24.25;66.16;100732.70;1694133;82;25833;-78
2021/07/24 08:28:10;;;;;;;14.83;10.10;;;;;;;24.29;65.20;100721.48;1715928;82;25846;-78
2021/07/24 08:30:37;;;;;;;16.82;10.70;;;;;;;24.31;64.69;100726.70;1734331;82;27462;-78
2021/07/24 08:33:04;;;;;;;18.05;10.98;;;;;;;24.36;63.79;100726.67;1685873;82;26478;-77
2021/07/24 08:35:32;;;;;;;11.95;9.78;;;;;;;24.41;62.75;100723.41;1717357;82;25869;-78
2021/07/24 08:37:59;;;;;;;15.18;10.45;;;;;;;24.47;63.40;100729.15;1707154;81;26518;-78
2021/07/24 08:40:26;;;;;;;12.63;9.68;;;;;;;24.55;63.78;100722.28;1707745;81;25762;-77
2021/07/24 08:42:53;;;;;;;17.20;10.93;;;;;;;24.65;63.02;100720.92;1674266;83;28187;-78
2021/07/24 08:45:20;;;;;;;16.00;9.85;;;;;;;24.69;63.73;100720.64;1697240;82;26692;-78
2021/07/24 08:47:47;;;;;;;12.53;9.38;;;;;;;24.78;62.85;100720.38;1708942;81;25802;-78
2021/07/24 08:50:15;;;;;;;12.13;9.50;;;;;;;24.82;62.68;100724.75;1768521;80;26494;-79
2021/07/24 08:52:42;;;;;;;11.97;10.08;;;;;;;24.85;62.02;100716.78;1693684;80;26067;-78
2021/07/24 08:55:10;;;;;;;14.95;10.48;;;;;;;24.88;61.10;100718.98;1696770;81;27217;-78
2021/07/24 08:57:40;;;;;;;11.05;9.05;;;;;;;24.94;60.98;100717.86;1721047;81;26437;-78
2021/07/24 09:00:12;;;;;;;13.95;9.30;;;;;;;25.04;62.09;100719.77;1737159;81;25814;-77
2021/07/24 09:02:47;;;;;;;10.00;8.78;;;;;;;25.13;60.75;100717.52;1702573;80;25712;-77
2021/07/24 09:05:17;;;;;;;13.03;9.95;;;;;;;25.09;59.93;100719.19;1730010;80;25788;-77
2021/07/24 09:07:51;;;;;;;13.08;10.10;;;;;;;24.97;60.39;100715.13;1706320;81;27568;-77
2021/07/24 09:10:20;;;;;;;15.70;10.45;;;;;;;24.84;60.22;100715.16;1735813;81;26252;-77
2021/07/24 09:12:49;;;;;;;16.93;11.75;;;;;;;24.64;60.45;100719.27;1662146;81;25892;-78
2021/07/24 09:15:18;;;;;;;16.00;10.85;;;;;;;24.53;61.11;100719.83;1668518;80;26627;-77
2021/07/24 09:17:46;;;;;;;11.78;9.63;;;;;;;24.44;61.15;100716.56;1694742;81;25813;-78
2021/07/24 09:20:14;;;;;;;14.18;10.80;;;;;;;24.34;61.42;100718.75;1737762;81;27514;-78
2021/07/24 09:22:43;;;;;;;17.65;10.18;;;;;;;24.27;61.41;100722.30;1656797;82;26741;-78
2021/07/24 09:25:21;;;;;;;11.12;9.95;;;;;;;24.24;62.20;100718.76;1683333;82;25907;-78
2021/07/24 09:27:55;;;;;;;12.20;10.80;;;;;;;24.26;62.92;100714.37;1704811;82;26540;-78
2021/07/24 09:30:36;;;;;;;13.48;9.95;;;;;;;24.26;61.72;100715.20;1731432;81;25875;-77
2021/07/24 09:33:15;;;;;;;14.70;9.83;;;;;;;24.30;62.34;100717.66;1690075;81;27726;-77
2021/07/24 09:35:45;;;;;;;14.07;9.60;;;;;;;24.35;62.73;100719.58;1749287;80;25893;-77
2021/07/24 09:38:16;;;;;;;11.45;9.83;;;;;;;24.34;61.06;100711.08;1682439;83;26146;-77
2021/07/24 09:40:46;;;;;;;14.10;9.68;;;;;;;24.33;61.22;100716.30;1720661;81;26817;-78
2021/07/24 09:43:35;;;;;;;10.85;9.33;;;;;;;24.33;60.48;100717.66;1674113;81;26455;-77
2021/07/24 09:46:18;;;;;;;14.28;9.55;;;;;;;24.38;60.20;100710.80;1749902;80;27432;-78
2021/07/24 09:48:51;;;;;;;12.30;9.58;;;;;;;24.45;60.93;100705.88;1727284;81;25815;-78
2021/07/24 09:51:45;;;;;;;10.82;9.50;;;;;;;24.53;60.44;100707.50;1737396;81;26666;-78
2021/07/24 09:54:27;;;;;;;10.20;9.15;;;;;;;24.55;59.73;100704.48;1724699;81;25767;-79
2021/07/24 09:56:55;;;;;;;12.50;9.20;;;;;;;24.66;60.08;100701.20;1699573;81;25884;-78
2021/07/24 09:59:30;;;;;;;10.58;9.43;;;;;;;24.80;59.79;100698.17;1721032;81;28342;-77
2021/07/24 10:02:06;;;;;;;10.88;8.83;;;;;;;24.86;58.61;100695.15;1739431;80;26381;-78
2021/07/24 10:04:39;;;;;;;11.05;8.75;;;;;;;24.80;58.19;100690.79;1707902;80;25841;-78
2021/07/24 10:07:09;;;;;;;9.85;8.23;;;;;;;24.75;58.65;100689.96;1726573;80;25835;-78
2021/07/24 10:09:44;;;;;;;12.33;8.93;;;;;;;24.79;57.54;100691.88;1747551;80;25819;-78
2021/07/24 10:12:16;;;;;;;11.93;8.88;;;;;;;24.87;57.12;100686.39;1747247;81;27513;-77
2021/07/24 10:14:43;;;;;;;12.53;8.78;;;;;;;24.95;57.16;100683.06;1691729;81;26492;-77
2021/07/24 10:17:13;;;;;;;13.35;7.95;;;;;;;25.05;56.49;100680.28;1726957;80;25783;-77
2021/07/24 10:19:40;;;;;;;8.45;7.62;;;;;;;25.14;56.26;100677.23;1733723;81;26573;-77
2021/07/24 10:22:07;;;;;;;10.43;7.80;;;;;;;25.23;56.27;100678.30;1717771;81;25581;-78
2021/07/24 10:24:34;;;;;;;13.60;9.48;;;;;;;25.31;55.96;100677.70;1687239;81;27915;-78
2021/07/24 10:27:12;;;;;;;9.83;8.18;;;;;;;25.35;54.16;100676.03;1684087;81;25847;-77
2021/07/24 10:30:03;;;;;;;9.23;8.10;;;;;;;25.37;55.13;100677.11;1735412;81;25841;-77
2021/07/24 10:32:37;;;;;;;11.03;8.43;;;;;;;25.43;55.48;100673.30;1721380;81;26500;-78
2021/07/24 10:35:06;;;;;;;10.38;7.80;;;;;;;25.49;54.76;100668.84;1700524;81;26507;-78
2021/07/24 10:37:42;;;;;;;12.37;8.65;;;;;;;25.49;55.35;100670.80;1671977;81;28290;-77
2021/07/24 10:40:25;;;;;;;9.95;8.23;;;;;;;25.55;55.49;100673.22;1731651;81;26163;-77
2021/07/24 10:42:52;;;;;;;10.40;7.87;;;;;;;25.61;55.88;100669.88;1729201;81;25857;-78
2021/07/24 10:45:37;;;;;;;9.53;8.25;;;;;;;25.62;54.65;100666.84;1733511;81;25891;-78
2021/07/24 10:48:27;;;;;;;10.32;8.35;;;;;;;25.63;53.80;100666.30;1701815;81;25924;-78
2021/07/24 10:51:02;;;;;;;10.13;8.53;;;;;;;25.61;53.86;100662.48;1727679;81;27438;-77
2021/07/24 10:54:04;;;;;;;10.75;7.92;;;;;;;25.62;53.83;100659.19;1714318;80;43748;-77
2021/07/24 10:56:41;;;;;;;9.20;8.30;;;;;;;25.68;54.92;100664.91;1732981;82;25855;-78
2021/07/24 10:59:25;;;;;;;13.18;8.45;;;;;;;25.75;54.58;100657.98;1736073;81;26581;-78
2021/07/24 11:01:56;;;;;;;11.35;8.33;;;;;;;25.85;54.67;100657.90;1704266;81;25819;-78
2021/07/24 11:04:40;;;;;;;15.58;10.70;;;;;;;25.93;55.56;100657.86;1691264;80;27596;-77
2021/07/24 11:07:25;;;;;;;11.97;9.13;;;;;;;26.05;54.71;100655.55;1749660;80;26055;-78
2021/07/24 11:09:57;;;;;;;12.98;9.95;;;;;;;26.19;54.92;100661.24;1735718;81;25849;-77
2021/07/24 11:12:40;;;;;;;80.77;15.80;;;;;;;26.37;54.17;100656.39;1724472;81;26402;-77
2021/07/24 11:15:12;;;;;;;16.52;12.70;;;;;;;26.55;55.25;100657.05;1718563;80;25842;-77
2021/07/24 11:17:39;;;;;;;15.13;8.25;;;;;;;26.80;53.76;100657.34;1699341;82;27546;-78
2021/07/24 11:20:11;;;;;;;30.08;14.35;;;;;;;26.89;51.85;100651.47;1730340;81;25317;-77
2021/07/24 11:23:00;;;;;;;33.28;11.48;;;;;;;26.89;52.59;100656.97;1704458;81;26053;-78
2021/07/24 11:25:35;;;;;;;17.17;9.33;;;;;;;26.93;52.52;100654.72;1667162;81;25792;-78